Time;durP1;ratioP1;P1;durP2;ratioP2;P2;SDS_P1;SDS_P2;PMS_P1;PMS_P2;Temp;Humidity;BMP_temperature;BMP_pressure;BME280_temperature;BME280_humidity;BME280_pressure;Samples;Min_cycle;Max_cycle;Signal;HPM_P1;HPM_P2
2023/06/29 00:01:28;;;;;;;;;;;;;;;25.07;49.08;100927.13;4983177;28;19914;-80
2023/06/29 00:04:21;;;;;;;;;;;;;;;25.10;48.93;100929.88;4975142;28;19914;-80
2023/06/29 00:07:13;;;;;;;;;;;;;;;24.97;49.49;100922.41;4973106;28;19913;-78
2023/06/29 00:10:02;;;;;;;;;;;;;;;24.90;49.15;100923.25;4979025;28;20393;-78
2023/06/29 00:12:52;;;;;;;;;;;;;;;24.90;49.34;100916.88;4987504;28;20317;-78
2023/06/29 00:15:43;;;;;;;;;;;;;;;24.96;49.49;100918.06;4990964;28;19914;-78
2023/06/29 00:18:35;;;;;;;;;;;;;;;25.06;49.05;100917.19;4979184;28;19914;-80
2023/06/29 00:21:28;;;;;;;;;;;;;;;24.78;49.79;100914.56;4972054;28;19913;-81
2023/06/29 00:24:19;;;;;;;;;;;;;;;24.56;50.19;100908.34;4980662;28;19914;-80
2023/06/29 00:27:11;;;;;;;;;;;;;;;24.98;49.16;100907.31;4995496;28;19913;-80
2023/06/29 00:30:03;;;;;;;;;;;;;;;24.93;49.96;100908.53;4981794;28;19913;-79
2023/06/29 00:32:55;;;;;;;;;;;;;;;24.90;49.54;100905.75;4995908;28;19914;-79
2023/06/29 00:35:44;;;;;;;;;;;;;;;24.85;49.87;100903.38;4966488;28;19914;-81
2023/06/29 00:38:36;;;;;;;;;;;;;;;24.88;50.00;100905.41;4984107;28;19922;-79
2023/06/29 00:41:23;;;;;;;;;;;;;;;24.91;49.86;100904.56;4965935;28;20281;-80
2023/06/29 00:44:15;;;;;;;;;;;;;;;24.92;49.86;100895.03;4979284;28;19914;-80
2023/06/29 00:47:07;;;;;;;;;;;;;;;24.77;50.13;100901.84;4964786;28;19914;-80
2023/06/29 00:49:59;;;;;;;;;;;;;;;24.59;50.78;100896.38;4967773;28;19913;-80
2023/06/29 00:52:51;;;;;;;;;;;;;;;24.59;51.10;100897.19;4979309;28;19917;-80
2023/06/29 00:55:45;;;;;;;;;;;;;;;24.63;50.71;100900.75;4972985;28;20385;-79
2023/06/29 00:58:37;;;;;;;;;;;;;;;24.86;49.64;100904.97;4981509;28;19914;-79
2023/06/29 01:01:29;;;;;;;;;;;;;;;24.81;49.65;100903.41;4974371;28;19921;-80
2023/06/29 01:04:22;;;;;;;;;;;;;;;24.82;50.00;100909.78;4965170;28;19914;-80
2023/06/29 01:07:19;;;;;;;;;;;;;;;24.75;49.99;100907.03;4991794;28;19914;-80
2023/06/29 01:10:09;;;;;;;;;;;;;;;24.65;50.29;100912.25;4993496;28;19914;-80
2023/06/29 01:13:02;;;;;;;;;;;;;;;24.61;50.77;100910.69;4966533;28;19914;-80
2023/06/29 01:15:54;;;;;;;;;;;;;;;24.68;50.13;100911.47;4964984;28;19914;-80
2023/06/29 01:18:48;;;;;;;;;;;;;;;24.80;49.84;100909.38;4992354;28;19914;-80
2023/06/29 01:21:41;;;;;;;;;;;;;;;24.65;50.31;100917.81;4991041;28;19914;-80
2023/06/29 01:24:36;;;;;;;;;;;;;;;24.63;50.64;100913.88;4974574;28;19914;-80
2023/06/29 01:27:28;;;;;;;;;;;;;;;24.59;50.45;100905.53;4992494;28;19914;-80
2023/06/29 01:30:20;;;;;;;;;;;;;;;24.61;50.28;100908.72;4992620;28;20389;-80
2023/06/29 01:33:12;;;;;;;;;;;;;;;24.63;50.14;100909.09;4976992;28;19922;-79
2023/06/29 01:36:03;;;;;;;;;;;;;;;24.66;50.57;100905.50;4988428;28;19922;-78
2023/06/29 01:38:59;;;;;;;;;;;;;;;24.57;50.98;100905.16;4974170;28;19914;-78
2023/06/29 01:41:53;;;;;;;;;;;;;;;24.64;50.62;100905.09;4986790;28;19923;-78
2023/06/29 01:44:45;;;;;;;;;;;;;;;24.57;50.56;100899.59;4980705;28;20293;-78
2023/06/29 01:47:37;;;;;;;;;;;;;;;24.58;50.36;100894.84;4979393;28;19977;-78
2023/06/29 01:50:29;;;;;;;;;;;;;;;24.63;50.37;100897.97;5000962;28;19913;-79
2023/06/29 01:53:21;;;;;;;;;;;;;;;24.67;50.43;100895.16;4976956;28;19922;-79
2023/06/29 01:56:13;;;;;;;;;;;;;;;24.69;50.61;100890.78;4979350;28;19914;-78
2023/06/29 01:59:05;;;;;;;;;;;;;;;24.65;50.80;100897.56;4975217;28;19917;-79
2023/06/29 02:01:57;;;;;;;;;;;;;;;24.63;50.58;100888.84;4992931;28;19913;-79
2023/06/29 02:04:49;;;;;;;;;;;;;;;24.54;51.17;100896.81;4969509;28;20305;-79
2023/06/29 02:07:41;;;;;;;;;;;;;;;24.49;51.32;100892.47;4975061;28;19914;-80
2023/06/29 02:10:33;;;;;;;;;;;;;;;24.45;50.99;100888.94;4972121;28;19914;-79
2023/06/29 02:13:25;;;;;;;;;;;;;;;24.52;51.71;100886.13;4975930;28;19918;-81
2023/06/29 02:16:17;;;;;;;;;;;;;;;24.52;51.45;100880.56;4977312;28;19918;-80
2023/06/29 02:19:09;;;;;;;;;;;;;;;24.58;51.06;100886.50;4970003;28;19922;-80
2023/06/29 02:22:00;;;;;;;;;;;;;;;24.60;51.10;100890.44;4993152;28;19914;-79
2023/06/29 02:24:52;;;;;;;;;;;;;;;24.50;51.66;100884.94;4979272;28;19914;-81
2023/06/29 02:27:44;;;;;;;;;;;;;;;24.55;52.12;100882.50;4962376;28;20444;-81
2023/06/29 02:30:34;;;;;;;;;;;;;;;24.49;51.23;100881.34;4988510;28;19913;-81
2023/06/29 02:33:23;;;;;;;;;;;;;;;24.31;51.89;100889.00;4999009;28;19914;-81
2023/06/29 02:36:15;;;;;;;;;;;;;;;24.54;51.18;100886.50;4994126;28;19918;-81
2023/06/29 02:39:07;;;;;;;;;;;;;;;24.61;51.98;100886.47;4965255;28;19914;-81
2023/06/29 02:41:58;;;;;;;;;;;;;;;24.71;51.61;100885.59;4994057;28;20340;-81
2023/06/29 02:44:50;;;;;;;;;;;;;;;24.65;51.25;100889.22;4999102;28;19914;-81
2023/06/29 02:47:42;;;;;;;;;;;;;;;24.66;51.86;100882.44;4999620;28;19914;-81
2023/06/29 02:50:34;;;;;;;;;;;;;;;24.68;52.18;100885.63;4983547;28;19918;-81
2023/06/29 02:53:22;;;;;;;;;;;;;;;24.74;51.88;100880.44;4988506;28;19918;-81
2023/06/29 02:56:12;;;;;;;;;;;;;;;24.89;52.39;100890.28;4979014;28;19918;-81
2023/06/29 02:59:02;;;;;;;;;;;;;;;24.86;51.90;100891.84;4994277;28;19914;-81
2023/06/29 03:01:54;;;;;;;;;;;;;;;24.82;51.63;100898.66;4983646;28;19915;-81
2023/06/29 03:04:45;;;;;;;;;;;;;;;24.60;50.84;100887.66;4994701;28;19913;-81
2023/06/29 03:07:38;;;;;;;;;;;;;;;24.53;51.27;100892.47;4978383;28;19914;-81
2023/06/29 03:10:30;;;;;;;;;;;;;;;24.47;52.76;100894.09;4953692;28;19913;-81
2023/06/29 03:13:20;;;;;;;;;;;;;;;24.53;52.08;100898.81;5005999;28;19914;-81
2023/06/29 03:16:12;;;;;;;;;;;;;;;24.52;51.76;100897.25;4973049;28;19914;-81
2023/06/29 03:19:04;;;;;;;;;;;;;;;24.40;51.80;100899.69;4977829;28;19933;-81
2023/06/29 03:21:56;;;;;;;;;;;;;;;24.44;51.87;100889.31;4978918;28;19914;-81
2023/06/29 03:24:46;;;;;;;;;;;;;;;24.51;51.79;100895.66;4973030;28;19914;-80
2023/06/29 03:27:38;;;;;;;;;;;;;;;24.34;53.16;100892.94;4976099;28;20289;-82
2023/06/29 03:30:30;;;;;;;;;;;;;;;24.13;53.58;100891.03;4976787;28;19914;-81
2023/06/29 03:33:21;;;;;;;;;;;;;;;23.98;54.25;100890.28;4998920;28;19913;-81
2023/06/29 03:36:13;;;;;;;;;;;;;;;23.86;55.00;100894.31;4972814;28;19914;-81
2023/06/29 03:39:03;;;;;;;;;;;;;;;23.78;55.64;100889.94;4964873;28;19918;-81
2023/06/29 03:41:52;;;;;;;;;;;;;;;23.67;55.90;100886.41;4978842;28;19914;-81
2023/06/29 03:44:44;;;;;;;;;;;;;;;23.66;54.86;100889.59;4973775;28;20004;-81
2023/06/29 03:47:36;;;;;;;;;;;;;;;23.70;54.50;100887.59;4979365;28;20377;-82
2023/06/29 03:50:28;;;;;;;;;;;;;;;23.78;54.39;100887.19;4977820;28;19918;-82
2023/06/29 03:53:18;;;;;;;;;;;;;;;23.83;53.58;100885.97;4965783;28;19914;-83
2023/06/29 03:56:10;;;;;;;;;;;;;;;23.77;53.42;100891.13;4979978;28;19914;-81
2023/06/29 03:59:02;;;;;;;;;;;;;;;23.91;53.02;100887.56;4964271;28;19914;-81
2023/06/29 04:01:54;;;;;;;;;;;;;;;23.90;52.84;100894.28;4971870;28;19922;-78
2023/06/29 04:04:46;;;;;;;;;;;;;;;23.84;52.32;100882.81;4964878;28;19914;-81
2023/06/29 04:07:35;;;;;;;;;;;;;;;23.86;52.24;100890.75;4995145;28;19914;-81
2023/06/29 04:10:27;;;;;;;;;;;;;;;23.88;53.30;100897.47;5004275;28;19918;-81
2023/06/29 04:13:20;;;;;;;;;;;;;;;23.81;53.28;100900.28;4981073;28;19921;-81
2023/06/29 04:16:09;;;;;;;;;;;;;;;23.82;53.61;100899.06;4991034;28;19922;-81
2023/06/29 04:19:01;;;;;;;;;;;;;;;23.82;54.45;100899.06;4973236;28;19922;-81
2023/06/29 04:21:51;;;;;;;;;;;;;;;23.54;55.47;100901.91;4970382;28;19914;-81
2023/06/29 04:24:43;;;;;;;;;;;;;;;23.66;55.18;100906.25;4971667;28;19914;-81
2023/06/29 04:27:35;;;;;;;;;;;;;;;23.86;54.71;100907.41;4966173;28;19918;-81
2023/06/29 04:30:24;;;;;;;;;;;;;;;23.99;53.90;100908.53;4995228;23;19926;-77
2023/06/29 04:33:16;;;;;;;;;;;;;;;24.08;53.69;100911.69;4955698;28;19922;-79
2023/06/29 04:36:08;;;;;;;;;;;;;;;24.07;53.55;100912.09;4963839;28;19914;-79
2023/06/29 04:39:00;;;;;;;;;;;;;;;24.10;53.44;100914.06;4959236;28;19913;-77
2023/06/29 04:41:52;;;;;;;;;;;;;;;24.06;53.18;100908.53;4947606;28;19914;-79
2023/06/29 04:44:44;;;;;;;;;;;;;;;24.12;53.23;100908.91;4942525;29;20377;-78
2023/06/29 04:47:36;;;;;;;;;;;;;;;24.04;53.22;100915.69;4951288;28;19915;-78
2023/06/29 04:50:28;;;;;;;;;;;;;;;24.06;53.08;100908.53;4955502;29;19926;-80
2023/06/29 04:53:20;;;;;;;;;;;;;;;24.07;52.78;100921.25;4944670;29;19914;-80
2023/06/29 04:56:12;;;;;;;;;;;;;;;24.12;53.15;100923.59;4950978;28;20317;-80
2023/06/29 04:59:04;;;;;;;;;;;;;;;24.14;53.91;100921.19;4928058;28;20376;-80
2023/06/29 05:01:56;;;;;;;;;;;;;;;24.14;54.53;100931.53;4950915;28;19914;-80
2023/06/29 05:04:48;;;;;;;;;;;;;;;24.17;54.61;100926.00;4941538;29;19918;-76
2023/06/29 05:07:39;;;;;;;;;;;;;;;24.18;54.69;100927.56;4958839;28;19914;-79
2023/06/29 05:10:32;;;;;;;;;;;;;;;24.20;54.19;100925.19;4941389;29;19919;-78
2023/06/29 05:13:23;;;;;;;;;;;;;;;24.26;53.98;100933.91;4923277;29;20358;-83
2023/06/29 05:16:16;;;;;;;;;;;;;;;24.17;53.96;100928.78;4943269;28;19914;-81
2023/06/29 05:19:08;;;;;;;;;;;;;;;24.09;54.25;100934.72;4941617;28;19914;-81
2023/06/29 05:22:00;;;;;;;;;;;;;;;24.04;54.31;100927.59;4958290;28;19914;-79
2023/06/29 05:24:52;;;;;;;;;;;;;;;24.09;54.37;100931.94;4942977;28;19914;-80
2023/06/29 05:27:44;;;;;;;;;;;;;;;24.13;54.87;100929.94;4938560;29;19918;-79
2023/06/29 05:30:36;;;;;;;;;;;;;;;24.17;54.37;100934.34;4935108;28;19918;-80
2023/06/29 05:33:28;;;;;;;;;;;;;;;24.20;54.09;100930.75;4953086;28;19915;-79
2023/06/29 05:36:18;;;;;;;;;;;;;;;24.26;54.06;100940.25;4941184;29;20386;-78
2023/06/29 05:39:11;;;;;;;;;;;;;;;24.34;54.03;100935.44;4948999;28;20409;-77
2023/06/29 05:42:03;;;;;;;;;;;;;;;24.38;53.66;100936.22;4974014;28;20306;-77
2023/06/29 05:44:55;;;;;;;;;;;;;;;24.42;53.65;100942.56;4977993;28;19918;-76
2023/06/29 05:47:47;;;;;;;;;;;;;;;24.46;53.10;100946.13;4948997;28;19914;-77
2023/06/29 05:50:39;;;;;;;;;;;;;;;24.44;52.91;100942.16;4946895;28;19922;-76
2023/06/29 05:53:31;;;;;;;;;;;;;;;24.48;52.09;100945.72;4950210;28;19914;-77
2023/06/29 05:56:23;;;;;;;;;;;;;;;24.49;50.27;100948.09;4973369;28;19914;-78
2023/06/29 05:59:15;;;;;;;;;;;;;;;24.63;47.68;100948.03;4972957;28;19914;-77
2023/06/29 06:02:05;;;;;;;;;;;;;;;24.69;46.78;100951.97;4973850;28;19913;-77
2023/06/29 06:04:57;;;;;;;;;;;;;;;24.78;46.09;100948.75;4965847;28;19914;-78
2023/06/29 06:07:48;;;;;;;;;;;;;;;24.92;46.14;100948.69;4964123;28;19914;-78
2023/06/29 06:10:40;;;;;;;;;;;;;;;25.03;46.20;100954.97;4961672;28;19918;-79
2023/06/29 06:13:32;;;;;;;;;;;;;;;25.23;44.98;100951.66;4965549;28;19914;-78
2023/06/29 06:16:24;;;;;;;;;;;;;;;25.34;44.08;100957.94;4925407;29;19919;-78
2023/06/29 06:19:16;;;;;;;;;;;;;;;25.33;44.28;100957.16;4956756;28;19918;-82
2023/06/29 06:22:08;;;;;;;;;;;;;;;25.33;44.12;100962.72;4947470;28;20298;-80
2023/06/29 06:25:00;;;;;;;;;;;;;;;25.27;44.88;100958.78;4933829;29;19914;-79
2023/06/29 06:27:52;;;;;;;;;;;;;;;25.37;43.35;100957.09;4935393;29;19915;-80
2023/06/29 06:30:44;;;;;;;;;;;;;;;25.49;43.16;100960.19;4936227;29;19919;-76
2023/06/29 06:33:36;;;;;;;;;;;;;;;25.49;43.00;100959.41;4934765;29;19915;-78
2023/06/29 06:36:29;;;;;;;;;;;;;;;25.46;43.22;100958.22;4947057;29;19915;-79
2023/06/29 06:39:18;;;;;;;;;;;;;;;25.47;42.69;100956.22;4938114;29;19915;-79
2023/06/29 06:42:10;;;;;;;;;;;;;;;25.51;42.61;100955.00;4935839;29;19914;-79
2023/06/29 06:45:05;;;;;;;;;;;;;;;25.46;42.65;100958.22;4952229;29;19914;-80
2023/06/29 06:47:57;;;;;;;;;;;;;;;25.53;42.45;100976.88;4934768;29;20370;-78
2023/06/29 06:50:48;;;;;;;;;;;;;;;25.59;43.88;100969.69;4936975;28;19918;-77
2023/06/29 06:53:40;;;;;;;;;;;;;;;25.59;42.68;100966.91;4957045;28;20337;-79
2023/06/29 06:56:32;;;;;;;;;;;;;;;25.66;42.51;100966.03;4936948;28;19914;-78
2023/06/29 06:59:25;;;;;;;;;;;;;;;25.59;40.64;100964.13;4948315;28;19918;-78
2023/06/29 07:02:17;;;;;;;;;;;;;;;25.66;41.96;100974.38;4941184;28;19922;-79
2023/06/29 07:05:09;;;;;;;;;;;;;;;25.45;42.16;100969.75;4956036;28;19914;-78
2023/06/29 07:08:01;;;;;;;;;;;;;;;25.48;40.94;100975.31;4950912;28;19918;-79
2023/06/29 07:10:53;;;;;;;;;;;;;;;25.53;40.97;100972.09;4962439;28;19918;-79
2023/06/29 07:13:45;;;;;;;;;;;;;;;25.50;41.62;100978.47;4963626;28;19917;-78
2023/06/29 07:16:34;;;;;;;;;;;;;;;25.57;41.56;100965.72;4967116;28;19914;-80
2023/06/29 07:19:26;;;;;;;;;;;;;;;25.47;40.75;100973.72;4952405;28;20300;-80
2023/06/29 07:22:18;;;;;;;;;;;;;;;25.59;40.73;100978.06;4971578;28;19918;-78
2023/06/29 07:25:08;;;;;;;;;;;;;;;25.64;41.05;100982.38;4949811;28;20309;-79
2023/06/29 07:28:00;;;;;;;;;;;;;;;25.56;40.68;100987.22;4960491;28;19914;-77
2023/06/29 07:30:52;;;;;;;;;;;;;;;25.64;41.48;100985.16;4952105;28;19927;-79
2023/06/29 07:33:44;;;;;;;;;;;;;;;25.64;41.38;100979.59;4922805;29;19914;-79
2023/06/29 07:36:36;;;;;;;;;;;;;;;25.58;41.41;100979.25;4935654;29;19915;-77
2023/06/29 07:39:28;;;;;;;;;;;;;;;25.69;41.66;100984.72;4939321;29;19914;-79
2023/06/29 07:42:20;;;;;;;;;;;;;;;25.80;41.68;100977.84;4942254;29;19914;-80
2023/06/29 07:45:12;;;;;;;;;;;;;;;27.08;38.80;100979.13;4933417;29;19915;-79
2023/06/29 07:48:06;;;;;;;5.50;1.20;;;;;;;29.04;34.58;100971.50;4925480;29;20425;-82
2023/06/29 07:51:01;;;;;;;7.30;1.08;;;;;;;29.31;33.55;100970.03;4898261;29;20424;-81
2023/06/29 07:53:55;;;;;;;2.78;1.40;;;;;;;30.53;31.29;100974.81;4913277;29;20055;-82
2023/06/29 07:56:47;;;;;;;;;;;;;;;33.44;27.49;100979.41;4926487;29;20055;-81
2023/06/29 07:59:42;;;;;;;3.15;1.05;;;;;;;35.33;25.00;100997.91;4923921;29;19915;-86
2023/06/29 08:02:34;;;;;;;;;;;;;;;39.04;20.72;100982.75;4937891;28;20066;-82
2023/06/29 08:05:28;;;;;;;5.35;0.95;;;;;;;37.16;22.04;100980.88;4919356;29;19919;-82
2023/06/29 08:08:25;;;;;;;4.97;1.00;;;;;;;40.59;17.63;100989.06;4918764;29;20051;-80
2023/06/29 08:11:20;;;;;;;7.40;1.67;;;;;;;43.86;15.87;100998.31;4928744;29;20414;-76
2023/06/29 08:14:15;;;;;;;3.72;1.05;;;;;;;44.33;13.82;100992.22;4931318;28;20050;-79
2023/06/29 08:17:07;;;;;;;1.83;0.95;;;;;;;38.80;17.55;100977.38;4954259;28;20046;-81
2023/06/29 08:20:03;;;;;;;5.82;0.90;;;;;;;41.28;16.74;100983.63;4935655;29;20530;-81
2023/06/29 08:22:55;;;;;;;4.18;1.00;;;;;;;37.57;20.30;100978.88;4941820;29;20434;-81
2023/06/29 08:25:49;;;;;;;3.90;0.93;;;;;;;39.20;19.38;100976.38;4958770;28;20050;-78
2023/06/29 08:28:43;;;;;;;4.65;1.10;;;;;;;39.24;18.73;100974.06;4954931;29;20050;-86
2023/06/29 08:31:38;;;;;;;3.67;0.70;;;;;;;35.88;21.89;100963.59;4953363;28;20054;-80
2023/06/29 08:34:33;;;;;;;3.50;0.82;;;;;;;34.93;23.20;100963.50;4957111;28;20115;-78
2023/06/29 08:37:25;;;;;;;2.90;1.00;;;;;;;37.60;20.71;100960.06;4972803;28;20121;-83
2023/06/29 08:40:23;;;;;;;2.05;1.15;;;;;;;33.65;25.24;100952.34;4917233;29;20347;-82
2023/06/29 08:43:18;;;;;;;3.05;0.88;;;;;;;38.96;18.54;100954.00;4917098;29;20063;-79
2023/06/29 08:46:13;;;;;;;2.60;0.98;;;;;;;36.80;20.35;100950.09;4917169;29;20063;-81
2023/06/29 08:49:09;;;;;;;16.17;3.78;;;;;;;39.09;18.95;100942.16;4932223;29;20051;-79
2023/06/29 08:52:04;;;;;;;2.47;0.98;;;;;;;37.75;19.60;100943.72;4930581;29;20039;-80
2023/06/29 08:54:57;;;;;;;5.57;0.70;;;;;;;34.60;23.79;100941.63;4930174;29;20062;-80
2023/06/29 08:57:52;;;;;;;23.70;2.47;;;;;;;35.68;22.32;100938.75;4936743;29;20066;-79
2023/06/29 09:00:45;;;;;;;6.47;0.80;;;;;;;35.71;22.29;100942.69;4919722;29;20409;-78
2023/06/29 09:03:40;;;;;;;11.40;1.30;;;;;;;42.35;16.37;100952.50;4928549;29;20051;-80
2023/06/29 09:06:35;;;;;;;3.30;0.70;;;;;;;44.79;13.54;100956.53;4931577;29;20519;-80
2023/06/29 09:09:29;;;;;;;2.53;1.30;;;;;;;44.77;13.67;100957.06;4915926;29;20063;-80
2023/06/29 09:12:21;;;;;;;3.03;0.70;;;;;;;46.76;11.82;100951.16;4928508;29;20103;-81
2023/06/29 09:15:16;;;;;;;7.45;1.40;;;;;;;42.99;14.38;100945.94;4929022;29;20056;-81
2023/06/29 09:18:11;;;;;;;1.75;0.90;;;;;;;44.06;14.30;100940.47;4933694;29;20047;-82
2023/06/29 09:21:05;;;;;;;;;;;;;;;44.79;13.70;100939.31;4931349;29;20063;-83
2023/06/29 09:23:57;;;;;;;;;;;;;;;44.18;14.11;100941.06;4948376;28;20301;-83
2023/06/29 09:26:55;;;;;;;;;;;;;;;44.43;13.79;100945.38;4940392;29;20297;-83
2023/06/29 09:29:51;;;;;;;;;;;;;;;43.20;14.92;100940.53;4919650;29;19918;-81
2023/06/29 09:32:43;;;;;;;;;;;;;;;41.56;16.16;100926.41;4926647;29;19915;-82
2023/06/29 09:35:35;;;;;;;;;;;;;;;45.35;12.82;100939.78;4939069;29;19914;-84
2023/06/29 09:38:32;;;;;;;;;;;;;;;47.67;10.73;100941.56;4941110;29;19918;-81
2023/06/29 09:41:21;;;;;;;;;;;;;;;44.82;12.16;100938.19;4921643;29;19914;-83
2023/06/29 09:44:13;;;;;;;;;;;;;;;44.39;12.62;100933.47;4927402;29;19914;-82
2023/06/29 09:47:08;;;;;;;;;;;;;;;44.74;12.23;100938.09;4940636;28;19914;-83
2023/06/29 09:50:00;;;;;;;;;;;;;;;44.07;13.06;100932.63;4944385;28;19926;-84
2023/06/29 09:52:55;;;;;;;;;;;;;;;45.70;12.07;100927.03;4945154;28;19914;-82
2023/06/29 09:55:52;;;;;;;;;;;;;;;42.13;13.95;100925.59;4961596;28;19914;-84
2023/06/29 09:58:44;;;;;;;;;;;;;;;42.38;13.81;100925.69;4960175;28;19914;-82
2023/06/29 10:01:36;;;;;;;;;;;;;;;42.54;13.77;100925.53;4958654;28;20393;-82
2023/06/29 10:04:28;;;;;;;;;;;;;;;38.98;17.30;100914.44;4941710;29;19914;-82
2023/06/29 10:07:19;;;;;;;;;;;;;;;40.14;16.33;100919.03;4945586;28;19914;-84
2023/06/29 10:10:13;;;;;;;;;;;;;;;48.13;10.31;100937.47;4948978;28;19928;-83
2023/06/29 10:13:07;;;;;;;;;;;;;;;40.65;15.29;100911.31;4934172;29;19914;-82
2023/06/29 10:15:58;;;;;;;;;;;;;;;40.56;16.16;100912.34;4933610;28;19914;-82
2023/06/29 10:18:50;;;;;;;;;;;;;;;44.21;12.42;100917.81;4944116;28;20390;-82
2023/06/29 10:21:43;;;;;;;;;;;;;;;40.32;15.18;100906.41;4944604;28;19926;-81
2023/06/29 10:24:36;;;;;;;;;;;;;;;38.10;17.28;100901.78;4946384;28;19914;-82
2023/06/29 10:27:28;;;;;;;;;;;;;;;39.58;16.80;100901.78;4942542;29;19914;-82
2023/06/29 10:30:23;;;;;;;;;;;;;;;41.79;14.99;100907.09;5032190;23;19942;-85
2023/06/29 10:33:15;;;;;;;;;;;;;;;42.29;14.06;100908.84;4971534;28;19922;-85
2023/06/29 10:36:08;;;;;;;;;;;;;;;42.28;13.86;100902.38;4970145;28;19914;-83
2023/06/29 10:39:00;;;;;;;;;;;;;;;46.25;11.06;100904.06;4979253;28;20381;-83
2023/06/29 10:41:52;;;;;;;;;;;;;;;47.59;9.94;100901.91;4976723;28;19914;-85
2023/06/29 10:44:47;;;;;;;;;;;;;;;45.81;11.51;100900.16;4968682;28;19914;-82
2023/06/29 10:47:39;;;;;;;;;;;;;;;44.34;12.24;100899.91;4978272;28;19914;-85
2023/06/29 10:50:37;;;;;;;;;;;;;;;47.86;10.09;100904.50;4980780;28;19918;-84
2023/06/29 10:53:30;;;;;;;;;;;;;;;45.46;11.73;100896.47;4994815;28;19914;-84
2023/06/29 10:56:34;;;;;;;;;;;;;;;46.89;10.40;100891.94;4964674;28;19914;-86
2023/06/29 10:59:27;;;;;;;;;;;;;;;46.55;11.04;100883.41;4989461;28;19918;-86
2023/06/29 11:02:17;;;;;;;;;;;;;;;45.83;11.35;100885.97;4983504;28;20373;-85
2023/06/29 11:05:07;;;;;;;;;;;;;;;44.38;12.60;100874.53;4971110;28;19914;-86
2023/06/29 11:07:56;;;;;;;;;;;;;;;46.50;10.81;100876.44;4958478;28;19914;-86
2023/06/29 11:10:48;;;;;;;;;;;;;;;44.02;12.83;100871.19;4969320;28;19918;-85
2023/06/29 11:13:40;;;;;;;;;;;;;;;44.69;12.13;100867.97;4973852;28;19915;-85
2023/06/29 11:16:32;;;;;;;;;;;;;;;47.96;9.90;100870.84;4976144;28;20389;-84
2023/06/29 11:19:27;;;;;;;;;;;;;;;50.71;8.03;100863.41;4971050;28;19914;-84
2023/06/29 11:22:17;;;;;;;;;;;;;;;50.97;8.06;100867.78;4956706;28;19914;-83
2023/06/29 11:25:14;;;;;;;5.25;1.00;;;;;;;45.85;11.53;100852.47;4961364;28;20977;-82
2023/06/29 11:28:04;;;;;;;9.95;1.05;;;;;;;40.17;16.39;100832.50;4980836;28;20053;-82
2023/06/29 11:30:58;;;;;;;1.45;0.93;;;;;;;38.36;17.42;100832.78;4954199;28;20058;-82
2023/06/29 11:33:56;;;;;;;59.83;3.75;;;;;;;37.22;19.04;100822.84;4955394;28;20070;-82
2023/06/29 11:36:51;;;;;;;4.22;0.90;;;;;;;35.71;20.60;100812.50;4964436;28;20050;-82
2023/06/29 11:39:48;;;;;;;1.92;0.95;;;;;;;34.97;21.11;100811.47;4978745;28;20046;-82
2023/06/29 11:42:46;;;;;;;3.28;0.88;;;;;;;34.55;22.49;100809.47;4965633;28;20064;-81
2023/06/29 11:45:41;;;;;;;2.60;0.80;;;;;;;33.87;23.52;100811.13;4982433;28;20046;-82
2023/06/29 11:48:35;;;;;;;6.57;0.90;;;;;;;33.60;24.38;100809.09;4967209;28;20057;-82
2023/06/29 11:51:29;;;;;;;2.80;1.00;;;;;;;33.09;24.31;100797.63;4978134;28;20049;-82
2023/06/29 11:54:23;;;;;;;6.43;1.42;;;;;;;33.08;24.83;100790.44;4979037;28;20053;-82
2023/06/29 11:57:20;;;;;;;5.32;1.20;;;;;;;32.89;25.83;100792.44;4979181;28;20050;-82
2023/06/29 12:00:19;;;;;;;3.80;1.38;;;;;;;32.72;26.19;100791.16;4978311;28;20062;-82
2023/06/29 12:03:14;;;;;;;5.47;1.35;;;;;;;32.31;26.38;100789.59;4972708;28;20410;-81
2023/06/29 12:06:09;;;;;;;1.58;0.90;;;;;;;32.35;26.43;100775.38;4959388;29;20050;-82
2023/06/29 12:09:11;;;;;;;2.17;0.80;;;;;;;32.43;25.72;100776.66;4949692;29;20058;-81
2023/06/29 12:12:06;;;;;;;4.43;1.40;;;;;;;32.45;25.31;100776.97;4945807;29;20066;-82
2023/06/29 12:15:12;;;;;;;4.20;1.13;;;;;;;32.42;26.41;100772.25;4963118;28;20545;-82
2023/06/29 12:18:12;;;;;;;2.97;1.30;;;;;;;32.05;27.14;100765.69;4960054;28;20517;-82
2023/06/29 12:21:05;;;;;;;4.22;1.40;;;;;;;31.94;27.28;100770.94;4960031;28;20047;-82
2023/06/29 12:24:05;;;;;;;4.28;1.08;;;;;;;31.52;27.38;100762.06;4947585;29;20348;-82
2023/06/29 12:27:00;;;;;;;4.75;1.55;;;;;;;31.48;27.97;100761.41;4958902;28;20054;-82
2023/06/29 12:29:55;;;;;;;3.13;1.60;;;;;;;31.66;27.74;100753.91;4962172;28;20094;-82
2023/06/29 12:32:47;;;;;;;6.90;1.70;;;;;;;31.51;27.85;100738.00;4933611;29;20046;-81
2023/06/29 12:35:42;;;;;;;2.90;1.60;;;;;;;31.32;29.24;100749.13;4949878;29;20521;-82
2023/06/29 12:38:36;;;;;;;3.42;1.23;;;;;;;31.19;28.84;100748.38;4960482;29;20042;-82
2023/06/29 12:41:28;;;;;;;3.47;1.55;;;;;;;31.47;28.32;100751.41;4958697;28;20066;-81
2023/06/29 12:44:23;;;;;;;2.67;1.10;;;;;;;31.48;28.65;100741.72;4959979;28;20062;-81
2023/06/29 12:47:18;;;;;;;9.73;1.88;;;;;;;31.44;29.14;100744.69;4954928;28;20116;-81
2023/06/29 12:50:12;;;;;;;3.47;1.75;;;;;;;31.49;28.97;100740.50;4958214;29;20422;-81
2023/06/29 12:53:04;;;;;;;9.65;1.45;;;;;;;31.64;29.32;100735.94;4971393;28;20058;-81
2023/06/29 12:55:59;;;;;;;11.18;1.65;;;;;;;31.62;28.76;100724.34;4977156;28;20058;-81
2023/06/29 12:58:54;;;;;;;4.15;2.05;;;;;;;31.46;30.19;100724.53;4979361;28;20043;-81
2023/06/29 13:01:48;;;;;;;4.32;1.60;;;;;;;31.32;29.37;100723.03;4964626;28;20050;-81
2023/06/29 13:04:43;;;;;;;7.35;1.50;;;;;;;31.25;29.88;100720.47;4969710;28;20053;-81
2023/06/29 13:07:35;;;;;;;2.75;1.30;;;;;;;31.17;29.27;100713.56;4986437;28;20050;-81
2023/06/29 13:10:27;;;;;;;4.28;1.10;;;;;;;31.27;28.46;100707.56;4959021;28;20425;-81
2023/06/29 13:13:20;;;;;;;4.82;1.02;;;;;;;31.33;29.08;100711.34;4968893;28;20046;-81
2023/06/29 13:16:12;;;;;;;2.78;1.08;;;;;;;31.33;28.46;100708.53;4971580;28;20437;-81
2023/06/29 13:19:04;;;;;;;4.43;1.67;;;;;;;31.16;29.46;100697.94;4970006;28;20046;-81
2023/06/29 13:21:56;;;;;;;3.42;1.13;;;;;;;31.07;29.78;100698.66;4978348;28;20042;-81
2023/06/29 13:24:51;;;;;;;5.55;1.30;;;;;;;31.01;30.15;100701.25;4977408;28;20054;-81
2023/06/29 13:27:43;;;;;;;2.67;1.27;;;;;;;30.85;30.26;100698.59;4977050;28;20445;-81
2023/06/29 13:30:38;;;;;;;2.63;1.58;;;;;;;30.85;29.13;100697.81;4966230;28;20133;-82
2023/06/29 13:33:30;;;;;;;6.65;1.30;;;;;;;31.07;29.67;100689.44;4978899;28;20417;-81
2023/06/29 13:36:25;;;;;;;4.63;1.33;;;;;;;31.00;30.33;100693.25;4982239;28;20041;-81
2023/06/29 13:39:19;;;;;;;3.97;1.38;;;;;;;30.80;30.94;100684.34;4966290;28;20057;-81
2023/06/29 13:42:14;;;;;;;2.13;1.38;;;;;;;30.94;29.77;100683.84;4961977;28;20038;-81
2023/06/29 13:45:10;;;;;;;9.80;1.52;;;;;;;30.92;30.12;100680.72;4961344;28;20045;-82
2023/06/29 13:48:06;;;;;;;5.32;1.25;;;;;;;30.74;30.14;100672.91;4949781;28;20521;-81
2023/06/29 13:50:58;;;;;;;4.60;1.33;;;;;;;30.65;30.94;100663.63;4953405;28;20054;-81
2023/06/29 13:53:52;;;;;;;5.32;1.58;;;;;;;30.56;31.10;100664.34;4964941;28;20062;-82
2023/06/29 13:56:44;;;;;;;4.32;1.40;;;;;;;30.39;31.22;100660.84;4959005;29;20054;-82
2023/06/29 13:59:39;;;;;;;2.40;1.20;;;;;;;30.46;30.73;100660.66;4958792;29;20054;-82
2023/06/29 14:02:33;;;;;;;7.20;1.20;;;;;;;30.55;30.21;100657.16;4958592;29;20066;-82
2023/06/29 14:05:28;;;;;;;207.43;14.85;;;;;;;30.48;30.59;100651.75;4975684;28;20057;-82
2023/06/29 14:08:18;;;;;;;14.15;2.40;;;;;;;30.49;30.25;100648.50;4943773;29;20035;-82
2023/06/29 14:11:12;;;;;;;8.48;1.73;;;;;;;30.53;30.89;100654.78;4957234;28;20058;-81
2023/06/29 14:14:05;;;;;;;6.50;1.55;;;;;;;30.62;30.67;100661.75;4947215;29;20548;-82
2023/06/29 14:16:57;;;;;;;1520.35;131.85;;;;;;;30.67;30.46;100647.91;4958312;29;20046;-81
2023/06/29 14:19:51;;;;;;;7.57;1.55;;;;;;;30.68;30.62;100643.06;4958655;29;20047;-81